sensor_id;sensor_type;location;lat;lon;timestamp;temperature;humidity
17671;DHT22;8954;48.694;8.940;2023-10-13T07:25:24;25.40;94.70
17671;DHT22;8954;48.694;8.940;2023-10-13T07:27:51;25.40;93.60
17671;DHT22;8954;48.694;8.940;2023-10-13T07:30:19;24.20;93.70
17671;DHT22;8954;48.694;8.940;2023-10-13T07:32:51;23.30;95.80
17671;DHT22;8954;48.694;8.940;2023-10-13T07:35:18;24.20;94.50
17671;DHT22;8954;48.694;8.940;2023-10-13T07:37:45;24.80;92.60
17671;DHT22;8954;48.694;8.940;2023-10-13T07:40:14;25.80;91.00
17671;DHT22;8954;48.694;8.940;2023-10-13T07:42:56;26.20;88.10
17671;DHT22;8954;48.694;8.940;2023-10-13T07:45:30;26.70;85.90
17671;DHT22;8954;48.694;8.940;2023-10-13T07:48:06;26.40;85.10
17671;DHT22;8954;48.694;8.940;2023-10-13T07:50:40;26.90;84.80
17671;DHT22;8954;48.694;8.940;2023-10-13T07:53:06;27.40;82.80
17671;DHT22;8954;48.694;8.940;2023-10-13T07:55:45;28.10;79.50
17671;DHT22;8954;48.694;8.940;2023-10-13T07:58:12;26.80;81.20
17671;DHT22;8954;48.694;8.940;2023-10-13T08:00:39;27.30;80.80
17671;DHT22;8954;48.694;8.940;2023-10-13T08:03:11;26.90;81.10
17671;DHT22;8954;48.694;8.940;2023-10-13T08:05:43;26.60;80.90
17671;DHT22;8954;48.694;8.940;2023-10-13T08:08:26;26.90;79.50
17671;DHT22;8954;48.694;8.940;2023-10-13T08:11:01;27.10;77.90
17671;DHT22;8954;48.694;8.940;2023-10-13T08:13:35;27.20;76.80
17671;DHT22;8954;48.694;8.940;2023-10-13T08:16:02;26.10;80.00
17671;DHT22;8954;48.694;8.940;2023-10-13T08:18:35;27.20;77.90
17671;DHT22;8954;48.694;8.940;2023-10-13T08:21:04;27.70;76.30
17671;DHT22;8954;48.694;8.940;2023-10-13T08:23:31;28.10;74.10
17671;DHT22;8954;48.694;8.940;2023-10-13T08:26:24;28.30;73.50
17671;DHT22;8954;48.694;8.940;2023-10-13T08:29:01;28.60;72.70
17671;DHT22;8954;48.694;8.940;2023-10-13T08:31:54;28.60;72.20
17671;DHT22;8954;48.694;8.940;2023-10-13T08:34:32;30.00;70.10
17671;DHT22;8954;48.694;8.940;2023-10-13T08:37:25;31.40;67.00
17671;DHT22;8954;48.694;8.940;2023-10-13T08:39:55;31.60;65.50
17671;DHT22;8954;48.694;8.940;2023-10-13T08:45:10;31.40;63.00
17671;DHT22;8954;48.694;8.940;2023-10-13T08:47:50;31.60;64.10
17671;DHT22;8954;48.694;8.940;2023-10-13T08:50:22;31.30;63.30
17671;DHT22;8954;48.694;8.940;2023-10-13T08:53:14;30.70;64.80
17671;DHT22;8954;48.694;8.940;2023-10-13T08:58:42;31.90;62.20
17671;DHT22;8954;48.694;8.940;2023-10-13T09:01:24;31.20;63.40
17671;DHT22;8954;48.694;8.940;2023-10-13T09:04:17;31.30;62.80
17671;DHT22;8954;48.694;8.940;2023-10-13T09:06:57;31.30;62.40
17671;DHT22;8954;48.694;8.940;2023-10-13T09:12:13;31.50;61.90
17671;DHT22;8954;48.694;8.940;2023-10-13T09:14:43;31.20;62.60
17671;DHT22;8954;48.694;8.940;2023-10-13T09:17:11;31.40;61.70
17671;DHT22;8954;48.694;8.940;2023-10-13T09:19:49;31.50;62.40
17671;DHT22;8954;48.694;8.940;2023-10-13T09:22:22;31.90;61.50
17671;DHT22;8954;48.694;8.940;2023-10-13T09:25:00;32.40;60.20
17671;DHT22;8954;48.694;8.940;2023-10-13T09:27:27;32.00;60.40
17671;DHT22;8954;48.694;8.940;2023-10-13T09:29:57;32.90;59.60
17671;DHT22;8954;48.694;8.940;2023-10-13T09:32:23;33.40;59.00
17671;DHT22;8954;48.694;8.940;2023-10-13T09:34:49;33.60;57.90
17671;DHT22;8954;48.694;8.940;2023-10-13T09:37:16;33.20;58.40
17671;DHT22;8954;48.694;8.940;2023-10-13T09:39:49;33.50;58.50
17671;DHT22;8954;48.694;8.940;2023-10-13T09:42:18;34.40;56.90
17671;DHT22;8954;48.694;8.940;2023-10-13T09:44:45;34.60;57.00
17671;DHT22;8954;48.694;8.940;2023-10-13T09:47:21;35.80;55.60
17671;DHT22;8954;48.694;8.940;2023-10-13T09:49:59;36.70;54.30
17671;DHT22;8954;48.694;8.940;2023-10-13T09:52:31;35.80;54.20
17671;DHT22;8954;48.694;8.940;2023-10-13T09:55:09;36.00;52.90
17671;DHT22;8954;48.694;8.940;2023-10-13T09:57:43;35.20;53.90
17671;DHT22;8954;48.694;8.940;2023-10-13T10:00:17;36.20;53.60
17671;DHT22;8954;48.694;8.940;2023-10-13T10:03:02;36.70;52.70
17671;DHT22;8954;48.694;8.940;2023-10-13T10:05:41;36.50;52.30
17671;DHT22;8954;48.694;8.940;2023-10-13T10:08:23;38.20;57.80
17671;DHT22;8954;48.694;8.940;2023-10-13T10:11:04;38.80;64.20
17671;DHT22;8954;48.694;8.940;2023-10-13T10:18:41;38.90;75.00
17671;DHT22;8954;48.694;8.940;2023-10-13T10:21:07;38.00;51.60
17671;DHT22;8954;48.694;8.940;2023-10-13T10:23:33;38.00;51.00
17671;DHT22;8954;48.694;8.940;2023-10-13T10:26:15;36.10;60.10
17671;DHT22;8954;48.694;8.940;2023-10-13T10:28:46;34.30;64.20
17671;DHT22;8954;48.694;8.940;2023-10-13T10:31:12;32.40;61.00
17671;DHT22;8954;48.694;8.940;2023-10-13T10:33:39;32.60;63.50
17671;DHT22;8954;48.694;8.940;2023-10-13T10:36:04;33.00;60.80
17671;DHT22;8954;48.694;8.940;2023-10-13T10:38:31;33.40;60.60
17671;DHT22;8954;48.694;8.940;2023-10-13T10:41:05;33.70;59.70
17671;DHT22;8954;48.694;8.940;2023-10-13T10:46:27;35.40;61.40
17671;DHT22;8954;48.694;8.940;2023-10-13T10:48:55;35.20;61.50
17671;DHT22;8954;48.694;8.940;2023-10-13T10:51:45;33.30;63.40
17671;DHT22;8954;48.694;8.940;2023-10-13T10:54:20;33.10;66.70
17671;DHT22;8954;48.694;8.940;2023-10-13T10:56:46;32.50;66.70
17671;DHT22;8954;48.694;8.940;2023-10-13T10:59:18;32.70;66.20
17671;DHT22;8954;48.694;8.940;2023-10-13T11:01:45;33.20;64.40
17671;DHT22;8954;48.694;8.940;2023-10-13T11:04:17;34.50;61.00
17671;DHT22;8954;48.694;8.940;2023-10-13T11:06:52;35.70;58.20
17671;DHT22;8954;48.694;8.940;2023-10-13T11:09:28;36.80;66.00
17671;DHT22;8954;48.694;8.940;2023-10-13T11:12:17;37.30;61.40
17671;DHT22;8954;48.694;8.940;2023-10-13T11:15:03;37.10;61.40
17671;DHT22;8954;48.694;8.940;2023-10-13T11:17:38;36.60;61.40
17671;DHT22;8954;48.694;8.940;2023-10-13T11:20:17;37.20;60.80
17671;DHT22;8954;48.694;8.940;2023-10-13T11:22:52;37.00;61.20
17671;DHT22;8954;48.694;8.940;2023-10-13T11:25:31;36.40;61.20
17671;DHT22;8954;48.694;8.940;2023-10-13T11:28:14;37.30;61.50
17671;DHT22;8954;48.694;8.940;2023-10-13T11:30:43;36.80;62.10
17671;DHT22;8954;48.694;8.940;2023-10-13T11:33:14;36.50;62.40
17671;DHT22;8954;48.694;8.940;2023-10-13T11:35:44;36.10;62.90
17671;DHT22;8954;48.694;8.940;2023-10-13T11:38:23;36.90;61.30
17671;DHT22;8954;48.694;8.940;2023-10-13T11:41:02;37.00;60.30
17671;DHT22;8954;48.694;8.940;2023-10-13T12:06:31;40.50;70.50
17671;DHT22;8954;48.694;8.940;2023-10-13T12:09:07;41.40;60.30
17671;DHT22;8954;48.694;8.940;2023-10-13T12:11:49;40.50;61.50
17671;DHT22;8954;48.694;8.940;2023-10-13T12:14:20;39.30;61.40
17671;DHT22;8954;48.694;8.940;2023-10-13T12:16:50;41.00;57.00
17671;DHT22;8954;48.694;8.940;2023-10-13T12:21:53;42.50;40.60
17671;DHT22;8954;48.694;8.940;2023-10-13T12:24:23;41.90;42.20
17671;DHT22;8954;48.694;8.940;2023-10-13T12:27:04;42.00;41.80
17671;DHT22;8954;48.694;8.940;2023-10-13T12:29:50;41.70;41.60
17671;DHT22;8954;48.694;8.940;2023-10-13T12:32:20;41.40;42.80
17671;DHT22;8954;48.694;8.940;2023-10-13T12:34:56;40.60;42.40
17671;DHT22;8954;48.694;8.940;2023-10-13T12:37:29;40.60;42.00
17671;DHT22;8954;48.694;8.940;2023-10-13T12:40:12;40.50;41.70
17671;DHT22;8954;48.694;8.940;2023-10-13T12:42:57;41.60;40.20
17671;DHT22;8954;48.694;8.940;2023-10-13T12:45:47;41.60;40.20
17671;DHT22;8954;48.694;8.940;2023-10-13T12:48:33;42.30;39.80
17671;DHT22;8954;48.694;8.940;2023-10-13T12:51:18;42.20;40.00
17671;DHT22;8954;48.694;8.940;2023-10-13T12:53:53;43.00;39.80
17671;DHT22;8954;48.694;8.940;2023-10-13T12:56:20;42.50;40.10
17671;DHT22;8954;48.694;8.940;2023-10-13T12:58:55;43.50;40.00
17671;DHT22;8954;48.694;8.940;2023-10-13T13:01:22;42.90;39.30
17671;DHT22;8954;48.694;8.940;2023-10-13T13:03:50;41.40;39.80
17671;DHT22;8954;48.694;8.940;2023-10-13T13:06:20;40.00;41.00
17671;DHT22;8954;48.694;8.940;2023-10-13T13:08:52;40.50;40.80
17671;DHT22;8954;48.694;8.940;2023-10-13T13:11:18;39.60;42.70
17671;DHT22;8954;48.694;8.940;2023-10-13T13:13:44;40.00;41.40
17671;DHT22;8954;48.694;8.940;2023-10-13T13:16:12;40.00;41.70
17671;DHT22;8954;48.694;8.940;2023-10-13T13:18:38;40.20;41.60
17671;DHT22;8954;48.694;8.940;2023-10-13T13:21:04;39.60;41.70
17671;DHT22;8954;48.694;8.940;2023-10-13T13:23:32;39.40;41.80
17671;DHT22;8954;48.694;8.940;2023-10-13T13:26:00;38.10;42.80
17671;DHT22;8954;48.694;8.940;2023-10-13T13:28:26;37.80;42.70
17671;DHT22;8954;48.694;8.940;2023-10-13T13:30:55;38.00;43.10
17671;DHT22;8954;48.694;8.940;2023-10-13T13:33:20;38.70;42.60
17671;DHT22;8954;48.694;8.940;2023-10-13T13:35:54;38.90;42.90
